sensor_id;sensor_type;location;lat;lon;timestamp;temperature;humidity
65462;DHT22;53236;43.666;18.444;2024-02-14T00:02:24;1.60;99.90
65462;DHT22;53236;43.666;18.444;2024-02-14T00:04:55;1.50;99.90
65462;DHT22;53236;43.666;18.444;2024-02-14T00:07:21;1.50;99.90
65462;DHT22;53236;43.666;18.444;2024-02-14T00:09:47;1.50;99.90
65462;DHT22;53236;43.666;18.444;2024-02-14T00:12:13;1.40;99.90
65462;DHT22;53236;43.666;18.444;2024-02-14T00:14:40;1.30;99.90
65462;DHT22;53236;43.666;18.444;2024-02-14T00:17:06;1.20;99.90
65462;DHT22;53236;43.666;18.444;2024-02-14T00:19:32;1.10;99.90
65462;DHT22;53236;43.666;18.444;2024-02-14T00:21:58;1.10;99.90
65462;DHT22;53236;43.666;18.444;2024-02-14T00:24:24;1.10;99.90
65462;DHT22;53236;43.666;18.444;2024-02-14T00:26:52;1.00;99.90
65462;DHT22;53236;43.666;18.444;2024-02-14T00:29:18;1.00;99.90
65462;DHT22;53236;43.666;18.444;2024-02-14T00:31:44;1.00;99.90
65462;DHT22;53236;43.666;18.444;2024-02-14T00:34:10;0.90;99.90
65462;DHT22;53236;43.666;18.444;2024-02-14T00:36:36;0.90;99.90
65462;DHT22;53236;43.666;18.444;2024-02-14T00:39:02;0.90;99.90
65462;DHT22;53236;43.666;18.444;2024-02-14T00:41:28;0.90;99.90
65462;DHT22;53236;43.666;18.444;2024-02-14T00:43:57;0.90;99.90
65462;DHT22;53236;43.666;18.444;2024-02-14T00:46:23;0.90;99.90
65462;DHT22;53236;43.666;18.444;2024-02-14T00:48:49;0.90;99.90
65462;DHT22;53236;43.666;18.444;2024-02-14T00:51:15;0.90;99.90
65462;DHT22;53236;43.666;18.444;2024-02-14T00:53:41;0.90;99.90
65462;DHT22;53236;43.666;18.444;2024-02-14T00:56:07;0.90;99.90
65462;DHT22;53236;43.666;18.444;2024-02-14T00:58:33;0.90;99.90
65462;DHT22;53236;43.666;18.444;2024-02-14T01:00:59;0.90;99.90
65462;DHT22;53236;43.666;18.444;2024-02-14T01:03:25;1.00;99.90
65462;DHT22;53236;43.666;18.444;2024-02-14T01:05:50;1.00;99.90
65462;DHT22;53236;43.666;18.444;2024-02-14T01:08:16;1.10;99.90
65462;DHT22;53236;43.666;18.444;2024-02-14T01:10:42;1.10;99.90
65462;DHT22;53236;43.666;18.444;2024-02-14T01:13:08;1.10;99.90
65462;DHT22;53236;43.666;18.444;2024-02-14T01:15:34;1.10;99.90
65462;DHT22;53236;43.666;18.444;2024-02-14T01:18:00;1.10;99.90
65462;DHT22;53236;43.666;18.444;2024-02-14T01:20:26;1.10;99.90
65462;DHT22;53236;43.666;18.444;2024-02-14T01:22:51;1.10;99.90
65462;DHT22;53236;43.666;18.444;2024-02-14T01:25:18;1.10;99.90
65462;DHT22;53236;43.666;18.444;2024-02-14T01:27:43;1.20;99.90
65462;DHT22;53236;43.666;18.444;2024-02-14T01:30:10;1.20;99.90
65462;DHT22;53236;43.666;18.444;2024-02-14T01:32:37;1.20;99.90
65462;DHT22;53236;43.666;18.444;2024-02-14T01:35:03;1.20;99.90
65462;DHT22;53236;43.666;18.444;2024-02-14T01:37:29;1.20;99.90
65462;DHT22;53236;43.666;18.444;2024-02-14T01:39:55;1.20;99.90
65462;DHT22;53236;43.666;18.444;2024-02-14T01:42:21;1.20;99.90
65462;DHT22;53236;43.666;18.444;2024-02-14T01:44:47;1.20;99.90
65462;DHT22;53236;43.666;18.444;2024-02-14T01:47:13;1.20;99.90
65462;DHT22;53236;43.666;18.444;2024-02-14T01:49:39;1.30;99.90
65462;DHT22;53236;43.666;18.444;2024-02-14T01:52:10;1.30;99.90
65462;DHT22;53236;43.666;18.444;2024-02-14T01:54:36;1.30;99.90
65462;DHT22;53236;43.666;18.444;2024-02-14T01:57:02;1.30;99.90
65462;DHT22;53236;43.666;18.444;2024-02-14T01:59:28;1.30;99.90
65462;DHT22;53236;43.666;18.444;2024-02-14T02:01:54;1.20;99.90
65462;DHT22;53236;43.666;18.444;2024-02-14T02:04:21;1.20;99.90
65462;DHT22;53236;43.666;18.444;2024-02-14T02:06:47;1.20;99.90
65462;DHT22;53236;43.666;18.444;2024-02-14T02:09:12;1.20;99.90
65462;DHT22;53236;43.666;18.444;2024-02-14T02:11:49;1.20;99.90
65462;DHT22;53236;43.666;18.444;2024-02-14T02:14:16;1.20;99.90
65462;DHT22;53236;43.666;18.444;2024-02-14T02:16:44;1.10;99.90
65462;DHT22;53236;43.666;18.444;2024-02-14T02:19:11;1.10;99.90
65462;DHT22;53236;43.666;18.444;2024-02-14T02:21:37;1.10;99.90
65462;DHT22;53236;43.666;18.444;2024-02-14T02:24:03;1.20;99.90
65462;DHT22;53236;43.666;18.444;2024-02-14T02:26:29;1.20;99.90
65462;DHT22;53236;43.666;18.444;2024-02-14T02:28:54;1.20;99.90
65462;DHT22;53236;43.666;18.444;2024-02-14T02:31:21;1.20;99.90
65462;DHT22;53236;43.666;18.444;2024-02-14T02:33:47;1.20;99.90
65462;DHT22;53236;43.666;18.444;2024-02-14T02:36:12;1.20;99.90
65462;DHT22;53236;43.666;18.444;2024-02-14T02:38:38;1.20;99.90
65462;DHT22;53236;43.666;18.444;2024-02-14T02:41:05;1.20;99.90
65462;DHT22;53236;43.666;18.444;2024-02-14T02:43:34;1.20;99.90
65462;DHT22;53236;43.666;18.444;2024-02-14T02:46:00;1.20;99.90
65462;DHT22;53236;43.666;18.444;2024-02-14T02:48:25;1.20;99.90
65462;DHT22;53236;43.666;18.444;2024-02-14T02:50:51;1.30;99.90
65462;DHT22;53236;43.666;18.444;2024-02-14T02:53:18;1.20;99.90
65462;DHT22;53236;43.666;18.444;2024-02-14T02:55:44;1.20;99.90
65462;DHT22;53236;43.666;18.444;2024-02-14T02:58:11;1.20;99.90
65462;DHT22;53236;43.666;18.444;2024-02-14T03:00:37;1.20;99.90
65462;DHT22;53236;43.666;18.444;2024-02-14T03:03:03;1.30;99.90
65462;DHT22;53236;43.666;18.444;2024-02-14T03:05:30;1.20;99.90
65462;DHT22;53236;43.666;18.444;2024-02-14T03:07:59;1.20;99.90
65462;DHT22;53236;43.666;18.444;2024-02-14T03:10:25;1.20;99.90
65462;DHT22;53236;43.666;18.444;2024-02-14T03:12:51;1.20;99.90
65462;DHT22;53236;43.666;18.444;2024-02-14T03:15:17;1.20;99.90
65462;DHT22;53236;43.666;18.444;2024-02-14T03:17:44;1.20;99.90
65462;DHT22;53236;43.666;18.444;2024-02-14T03:20:13;1.20;99.90
65462;DHT22;53236;43.666;18.444;2024-02-14T03:22:42;1.20;99.90
65462;DHT22;53236;43.666;18.444;2024-02-14T03:25:21;1.30;99.90
65462;DHT22;53236;43.666;18.444;2024-02-14T03:27:49;1.20;99.90
65462;DHT22;53236;43.666;18.444;2024-02-14T03:30:18;1.20;99.90
65462;DHT22;53236;43.666;18.444;2024-02-14T03:32:46;1.20;99.90
65462;DHT22;53236;43.666;18.444;2024-02-14T03:35:14;1.20;99.90
65462;DHT22;53236;43.666;18.444;2024-02-14T03:37:45;1.20;99.90
65462;DHT22;53236;43.666;18.444;2024-02-14T03:40:13;1.20;99.90
65462;DHT22;53236;43.666;18.444;2024-02-14T03:42:39;1.20;99.90
65462;DHT22;53236;43.666;18.444;2024-02-14T03:45:06;1.20;99.90
65462;DHT22;53236;43.666;18.444;2024-02-14T03:47:32;1.20;99.90
65462;DHT22;53236;43.666;18.444;2024-02-14T03:49:59;1.20;99.90
65462;DHT22;53236;43.666;18.444;2024-02-14T03:52:25;1.20;99.90
65462;DHT22;53236;43.666;18.444;2024-02-14T03:54:52;1.20;99.90
65462;DHT22;53236;43.666;18.444;2024-02-14T03:57:17;1.20;99.90
65462;DHT22;53236;43.666;18.444;2024-02-14T03:59:44;1.20;99.90
65462;DHT22;53236;43.666;18.444;2024-02-14T04:02:10;1.20;99.90
65462;DHT22;53236;43.666;18.444;2024-02-14T04:04:41;1.20;99.90
65462;DHT22;53236;43.666;18.444;2024-02-14T04:07:08;1.20;99.90
65462;DHT22;53236;43.666;18.444;2024-02-14T04:09:34;1.20;99.90
65462;DHT22;53236;43.666;18.444;2024-02-14T04:12:00;1.20;99.90
65462;DHT22;53236;43.666;18.444;2024-02-14T04:14:26;1.20;99.90
65462;DHT22;53236;43.666;18.444;2024-02-14T04:16:52;1.20;99.90
65462;DHT22;53236;43.666;18.444;2024-02-14T04:19:17;1.20;99.90
65462;DHT22;53236;43.666;18.444;2024-02-14T04:21:43;1.20;99.90
65462;DHT22;53236;43.666;18.444;2024-02-14T04:24:09;1.20;99.90
65462;DHT22;53236;43.666;18.444;2024-02-14T04:26:35;1.20;99.90
65462;DHT22;53236;43.666;18.444;2024-02-14T04:29:01;1.20;99.90
65462;DHT22;53236;43.666;18.444;2024-02-14T04:31:27;1.10;99.90
65462;DHT22;53236;43.666;18.444;2024-02-14T04:33:55;1.10;99.90
65462;DHT22;53236;43.666;18.444;2024-02-14T04:36:21;1.10;99.90
65462;DHT22;53236;43.666;18.444;2024-02-14T04:38:50;1.20;99.90
65462;DHT22;53236;43.666;18.444;2024-02-14T04:41:17;1.10;99.90
65462;DHT22;53236;43.666;18.444;2024-02-14T04:43:43;1.10;99.90
65462;DHT22;53236;43.666;18.444;2024-02-14T04:46:08;1.10;99.90
65462;DHT22;53236;43.666;18.444;2024-02-14T04:48:35;1.10;99.90
65462;DHT22;53236;43.666;18.444;2024-02-14T04:51:02;1.10;99.90
65462;DHT22;53236;43.666;18.444;2024-02-14T04:53:28;1.10;99.90
65462;DHT22;53236;43.666;18.444;2024-02-14T04:55:54;1.10;99.90
65462;DHT22;53236;43.666;18.444;2024-02-14T04:58:20;1.10;99.90
65462;DHT22;53236;43.666;18.444;2024-02-14T05:00:46;1.10;99.90
65462;DHT22;53236;43.666;18.444;2024-02-14T05:03:12;1.10;99.90
65462;DHT22;53236;43.666;18.444;2024-02-14T05:05:38;1.10;99.90
65462;DHT22;53236;43.666;18.444;2024-02-14T05:08:04;1.10;99.90
65462;DHT22;53236;43.666;18.444;2024-02-14T05:10:31;1.10;99.90
65462;DHT22;53236;43.666;18.444;2024-02-14T05:12:59;1.10;99.90
65462;DHT22;53236;43.666;18.444;2024-02-14T05:15:26;1.10;99.90
65462;DHT22;53236;43.666;18.444;2024-02-14T05:17:52;1.10;99.90
65462;DHT22;53236;43.666;18.444;2024-02-14T05:20:18;1.10;99.90
65462;DHT22;53236;43.666;18.444;2024-02-14T05:22:44;1.00;99.90
65462;DHT22;53236;43.666;18.444;2024-02-14T05:25:10;1.10;99.90
65462;DHT22;53236;43.666;18.444;2024-02-14T05:27:36;1.10;99.90
65462;DHT22;53236;43.666;18.444;2024-02-14T05:30:05;1.10;99.90
65462;DHT22;53236;43.666;18.444;2024-02-14T05:32:32;1.10;99.90
65462;DHT22;53236;43.666;18.444;2024-02-14T05:34:58;1.10;99.90
65462;DHT22;53236;43.666;18.444;2024-02-14T05:37:24;1.00;99.90
65462;DHT22;53236;43.666;18.444;2024-02-14T05:39:53;1.10;99.90
65462;DHT22;53236;43.666;18.444;2024-02-14T05:42:19;1.10;99.90
65462;DHT22;53236;43.666;18.444;2024-02-14T05:44:45;1.10;99.90
65462;DHT22;53236;43.666;18.444;2024-02-14T05:47:10;1.10;99.90
65462;DHT22;53236;43.666;18.444;2024-02-14T05:49:38;1.10;99.90
65462;DHT22;53236;43.666;18.444;2024-02-14T05:52:06;1.20;99.90
65462;DHT22;53236;43.666;18.444;2024-02-14T05:54:31;1.30;99.90
65462;DHT22;53236;43.666;18.444;2024-02-14T05:56:57;1.30;99.90
65462;DHT22;53236;43.666;18.444;2024-02-14T05:59:23;1.20;99.90
65462;DHT22;53236;43.666;18.444;2024-02-14T06:01:49;1.30;99.90
65462;DHT22;53236;43.666;18.444;2024-02-14T06:04:15;1.20;99.90
65462;DHT22;53236;43.666;18.444;2024-02-14T06:06:40;1.20;99.90
65462;DHT22;53236;43.666;18.444;2024-02-14T06:09:06;1.20;99.90
65462;DHT22;53236;43.666;18.444;2024-02-14T06:11:36;1.10;99.90
65462;DHT22;53236;43.666;18.444;2024-02-14T06:14:07;1.10;99.90
65462;DHT22;53236;43.666;18.444;2024-02-14T06:16:34;1.10;99.90
65462;DHT22;53236;43.666;18.444;2024-02-14T06:19:01;1.10;99.90
65462;DHT22;53236;43.666;18.444;2024-02-14T06:21:30;1.20;99.90
65462;DHT22;53236;43.666;18.444;2024-02-14T06:23:55;1.30;99.90
65462;DHT22;53236;43.666;18.444;2024-02-14T06:26:24;1.30;99.90
65462;DHT22;53236;43.666;18.444;2024-02-14T06:28:50;1.40;99.90
65462;DHT22;53236;43.666;18.444;2024-02-14T06:31:20;1.40;99.90
65462;DHT22;53236;43.666;18.444;2024-02-14T06:33:46;1.40;99.90
65462;DHT22;53236;43.666;18.444;2024-02-14T06:36:12;1.40;99.90
65462;DHT22;53236;43.666;18.444;2024-02-14T06:38:38;1.50;99.90
65462;DHT22;53236;43.666;18.444;2024-02-14T06:41:05;1.50;99.90
65462;DHT22;53236;43.666;18.444;2024-02-14T06:43:30;1.60;99.90
65462;DHT22;53236;43.666;18.444;2024-02-14T06:45:56;1.60;99.90
65462;DHT22;53236;43.666;18.444;2024-02-14T06:48:22;1.80;99.90
65462;DHT22;53236;43.666;18.444;2024-02-14T06:50:53;2.00;99.90
65462;DHT22;53236;43.666;18.444;2024-02-14T06:53:18;2.00;99.90
65462;DHT22;53236;43.666;18.444;2024-02-14T06:55:44;2.10;99.90
65462;DHT22;53236;43.666;18.444;2024-02-14T06:58:10;2.30;99.90
65462;DHT22;53236;43.666;18.444;2024-02-14T07:00:36;2.50;99.90
65462;DHT22;53236;43.666;18.444;2024-02-14T07:03:02;2.80;99.90
65462;DHT22;53236;43.666;18.444;2024-02-14T07:05:28;3.00;99.90
65462;DHT22;53236;43.666;18.444;2024-02-14T07:07:55;3.30;99.90
65462;DHT22;53236;43.666;18.444;2024-02-14T07:10:21;3.60;99.90
65462;DHT22;53236;43.666;18.444;2024-02-14T07:12:47;3.80;99.90
65462;DHT22;53236;43.666;18.444;2024-02-14T07:15:12;4.50;99.90
65462;DHT22;53236;43.666;18.444;2024-02-14T07:17:39;5.40;99.90
65462;DHT22;53236;43.666;18.444;2024-02-14T07:20:05;6.70;99.90
65462;DHT22;53236;43.666;18.444;2024-02-14T07:22:34;7.50;99.90
65462;DHT22;53236;43.666;18.444;2024-02-14T07:25:00;8.00;99.30
65462;DHT22;53236;43.666;18.444;2024-02-14T07:27:26;8.20;99.20
65462;DHT22;53236;43.666;18.444;2024-02-14T07:29:52;7.90;98.20
65462;DHT22;53236;43.666;18.444;2024-02-14T07:32:18;8.50;99.90
65462;DHT22;53236;43.666;18.444;2024-02-14T07:34:44;9.20;99.90
65462;DHT22;53236;43.666;18.444;2024-02-14T07:37:10;9.50;93.50
65462;DHT22;53236;43.666;18.444;2024-02-14T07:39:35;9.90;93.30
65462;DHT22;53236;43.666;18.444;2024-02-14T07:42:02;10.40;84.60
65462;DHT22;53236;43.666;18.444;2024-02-14T07:44:28;10.10;94.50
65462;DHT22;53236;43.666;18.444;2024-02-14T07:46:54;10.10;92.40
65462;DHT22;53236;43.666;18.444;2024-02-14T07:49:19;11.30;81.70
65462;DHT22;53236;43.666;18.444;2024-02-14T07:51:46;12.20;73.10
65462;DHT22;53236;43.666;18.444;2024-02-14T07:54:12;12.60;68.80
65462;DHT22;53236;43.666;18.444;2024-02-14T07:56:37;13.20;68.00
65462;DHT22;53236;43.666;18.444;2024-02-14T07:59:04;13.70;72.20
65462;DHT22;53236;43.666;18.444;2024-02-14T08:01:31;14.80;66.30
65462;DHT22;53236;43.666;18.444;2024-02-14T08:03:58;16.30;59.00
65462;DHT22;53236;43.666;18.444;2024-02-14T08:06:24;16.10;58.60
65462;DHT22;53236;43.666;18.444;2024-02-14T08:08:50;16.30;58.40
65462;DHT22;53236;43.666;18.444;2024-02-14T08:11:19;15.80;59.20
65462;DHT22;53236;43.666;18.444;2024-02-14T08:13:45;16.40;59.50
65462;DHT22;53236;43.666;18.444;2024-02-14T08:16:11;16.50;56.10
65462;DHT22;53236;43.666;18.444;2024-02-14T08:18:37;16.50;60.10
65462;DHT22;53236;43.666;18.444;2024-02-14T08:21:05;15.90;59.70
65462;DHT22;53236;43.666;18.444;2024-02-14T08:23:32;15.60;60.60
65462;DHT22;53236;43.666;18.444;2024-02-14T08:25:57;15.20;58.00
65462;DHT22;53236;43.666;18.444;2024-02-14T08:28:23;15.40;60.40
65462;DHT22;53236;43.666;18.444;2024-02-14T08:30:49;15.60;59.40
65462;DHT22;53236;43.666;18.444;2024-02-14T08:33:15;15.60;58.60
65462;DHT22;53236;43.666;18.444;2024-02-14T08:35:40;15.00;56.80
65462;DHT22;53236;43.666;18.444;2024-02-14T08:38:06;15.00;60.10
65462;DHT22;53236;43.666;18.444;2024-02-14T08:40:33;16.40;57.60
65462;DHT22;53236;43.666;18.444;2024-02-14T08:42:59;17.60;57.50
65462;DHT22;53236;43.666;18.444;2024-02-14T08:45:25;18.00;53.50
65462;DHT22;53236;43.666;18.444;2024-02-14T08:47:54;18.80;52.90
65462;DHT22;53236;43.666;18.444;2024-02-14T08:50:20;19.50;53.60
65462;DHT22;53236;43.666;18.444;2024-02-14T08:52:46;20.00;51.50
65462;DHT22;53236;43.666;18.444;2024-02-14T08:55:11;20.40;51.30
65462;DHT22;53236;43.666;18.444;2024-02-14T08:57:42;20.90;50.20
65462;DHT22;53236;43.666;18.444;2024-02-14T09:00:08;20.90;45.50
65462;DHT22;53236;43.666;18.444;2024-02-14T09:02:36;20.60;45.10
65462;DHT22;53236;43.666;18.444;2024-02-14T09:05:02;20.80;46.20
65462;DHT22;53236;43.666;18.444;2024-02-14T09:07:30;21.10;47.80
65462;DHT22;53236;43.666;18.444;2024-02-14T09:09:57;21.70;47.50
65462;DHT22;53236;43.666;18.444;2024-02-14T09:12:24;22.50;46.60
65462;DHT22;53236;43.666;18.444;2024-02-14T09:14:49;22.80;44.10
65462;DHT22;53236;43.666;18.444;2024-02-14T09:17:15;22.70;42.70
65462;DHT22;53236;43.666;18.444;2024-02-14T09:19:41;22.30;41.50
65462;DHT22;53236;43.666;18.444;2024-02-14T09:22:07;23.00;43.10
65462;DHT22;53236;43.666;18.444;2024-02-14T09:24:33;22.30;44.20
65462;DHT22;53236;43.666;18.444;2024-02-14T09:26:58;22.30;41.20
65462;DHT22;53236;43.666;18.444;2024-02-14T09:29:24;22.70;43.00
65462;DHT22;53236;43.666;18.444;2024-02-14T09:31:53;22.10;43.20
65462;DHT22;53236;43.666;18.444;2024-02-14T09:34:19;22.90;43.90
65462;DHT22;53236;43.666;18.444;2024-02-14T09:36:48;22.50;45.40
65462;DHT22;53236;43.666;18.444;2024-02-14T09:39:15;23.00;43.30
65462;DHT22;53236;43.666;18.444;2024-02-14T09:41:44;23.60;39.90
65462;DHT22;53236;43.666;18.444;2024-02-14T09:44:13;23.60;42.00
65462;DHT22;53236;43.666;18.444;2024-02-14T09:46:39;23.10;39.60
65462;DHT22;53236;43.666;18.444;2024-02-14T09:49:06;23.60;40.70
65462;DHT22;53236;43.666;18.444;2024-02-14T09:51:32;23.00;41.70
65462;DHT22;53236;43.666;18.444;2024-02-14T09:54:00;22.20;41.50
65462;DHT22;53236;43.666;18.444;2024-02-14T09:56:29;22.50;42.60
65462;DHT22;53236;43.666;18.444;2024-02-14T09:58:56;23.90;41.10
65462;DHT22;53236;43.666;18.444;2024-02-14T10:01:23;23.00;41.10
65462;DHT22;53236;43.666;18.444;2024-02-14T10:03:50;22.10;41.50
65462;DHT22;53236;43.666;18.444;2024-02-14T10:06:17;19.80;45.70
65462;DHT22;53236;43.666;18.444;2024-02-14T10:08:46;20.00;44.30
65462;DHT22;53236;43.666;18.444;2024-02-14T10:11:12;21.50;44.70
65462;DHT22;53236;43.666;18.444;2024-02-14T10:13:40;22.70;43.40
65462;DHT22;53236;43.666;18.444;2024-02-14T10:16:06;23.00;40.90
65462;DHT22;53236;43.666;18.444;2024-02-14T10:18:34;23.00;41.10
65462;DHT22;53236;43.666;18.444;2024-02-14T10:21:00;22.90;42.80
65462;DHT22;53236;43.666;18.444;2024-02-14T10:23:27;23.30;42.60
65462;DHT22;53236;43.666;18.444;2024-02-14T10:25:53;23.60;40.20
65462;DHT22;53236;43.666;18.444;2024-02-14T10:28:21;23.30;40.60
65462;DHT22;53236;43.666;18.444;2024-02-14T10:30:48;22.70;42.40
65462;DHT22;53236;43.666;18.444;2024-02-14T10:33:15;22.70;40.00
65462;DHT22;53236;43.666;18.444;2024-02-14T10:35:42;22.20;41.40
65462;DHT22;53236;43.666;18.444;2024-02-14T10:38:08;22.90;41.30
65462;DHT22;53236;43.666;18.444;2024-02-14T10:40:38;23.40;40.70
65462;DHT22;53236;43.666;18.444;2024-02-14T10:43:08;23.70;38.90
65462;DHT22;53236;43.666;18.444;2024-02-14T10:45:37;23.40;40.60
65462;DHT22;53236;43.666;18.444;2024-02-14T10:48:07;22.70;39.80
65462;DHT22;53236;43.666;18.444;2024-02-14T10:50:34;22.00;40.40
65462;DHT22;53236;43.666;18.444;2024-02-14T10:53:04;21.40;41.40
65462;DHT22;53236;43.666;18.444;2024-02-14T10:55:33;22.10;43.00
65462;DHT22;53236;43.666;18.444;2024-02-14T10:57:59;22.60;41.20
65462;DHT22;53236;43.666;18.444;2024-02-14T11:00:26;22.80;39.90
65462;DHT22;53236;43.666;18.444;2024-02-14T11:02:55;22.60;39.80
65462;DHT22;53236;43.666;18.444;2024-02-14T11:05:23;22.10;39.60
65462;DHT22;53236;43.666;18.444;2024-02-14T11:07:50;22.60;39.30
65462;DHT22;53236;43.666;18.444;2024-02-14T11:10:20;22.90;38.40
65462;DHT22;53236;43.666;18.444;2024-02-14T11:12:47;22.90;39.50
65462;DHT22;53236;43.666;18.444;2024-02-14T11:15:22;22.10;38.20
65462;DHT22;53236;43.666;18.444;2024-02-14T11:17:49;21.90;40.40
65462;DHT22;53236;43.666;18.444;2024-02-14T11:20:21;22.40;41.40
65462;DHT22;53236;43.666;18.444;2024-02-14T11:23:03;22.60;39.30
65462;DHT22;53236;43.666;18.444;2024-02-14T11:25:31;22.20;40.00
65462;DHT22;53236;43.666;18.444;2024-02-14T11:28:24;21.80;40.00
65462;DHT22;53236;43.666;18.444;2024-02-14T11:30:46;21.70;41.60
65462;DHT22;53236;43.666;18.444;2024-02-14T11:33:16;20.70;40.00
65462;DHT22;53236;43.666;18.444;2024-02-14T11:35:45;18.80;41.60
65462;DHT22;53236;43.666;18.444;2024-02-14T11:38:10;17.00;46.20
65462;DHT22;53236;43.666;18.444;2024-02-14T11:40:37;16.00;48.20
65462;DHT22;53236;43.666;18.444;2024-02-14T11:43:18;15.00;49.10
65462;DHT22;53236;43.666;18.444;2024-02-14T11:45:47;13.90;52.20
65462;DHT22;53236;43.666;18.444;2024-02-14T11:48:18;13.00;53.50
65462;DHT22;53236;43.666;18.444;2024-02-14T11:50:45;12.40;54.90
65462;DHT22;53236;43.666;18.444;2024-02-14T11:53:12;12.00;57.60
65462;DHT22;53236;43.666;18.444;2024-02-14T11:55:39;11.80;57.80
65462;DHT22;53236;43.666;18.444;2024-02-14T11:58:14;11.60;59.40
65462;DHT22;53236;43.666;18.444;2024-02-14T12:00:42;11.50;60.80
65462;DHT22;53236;43.666;18.444;2024-02-14T12:03:18;11.30;59.20
65462;DHT22;53236;43.666;18.444;2024-02-14T12:05:47;11.00;58.50
65462;DHT22;53236;43.666;18.444;2024-02-14T12:08:14;11.00;60.90
65462;DHT22;53236;43.666;18.444;2024-02-14T12:10:42;10.80;61.20
65462;DHT22;53236;43.666;18.444;2024-02-14T12:13:11;10.60;59.20
65462;DHT22;53236;43.666;18.444;2024-02-14T12:15:41;10.20;59.30
65462;DHT22;53236;43.666;18.444;2024-02-14T12:18:08;10.20;60.90
65462;DHT22;53236;43.666;18.444;2024-02-14T12:20:37;10.10;61.60
65462;DHT22;53236;43.666;18.444;2024-02-14T12:23:04;10.00;60.60
65462;DHT22;53236;43.666;18.444;2024-02-14T12:25:31;9.90;59.20
65462;DHT22;53236;43.666;18.444;2024-02-14T12:27:57;9.80;63.00
65462;DHT22;53236;43.666;18.444;2024-02-14T12:30:46;9.70;62.10
65462;DHT22;53236;43.666;18.444;2024-02-14T12:33:13;9.50;62.60
65462;DHT22;53236;43.666;18.444;2024-02-14T12:35:46;9.40;63.30
65462;DHT22;53236;43.666;18.444;2024-02-14T12:38:13;9.30;63.60
65462;DHT22;53236;43.666;18.444;2024-02-14T12:40:40;9.30;64.40
65462;DHT22;53236;43.666;18.444;2024-02-14T12:43:07;9.30;63.70
65462;DHT22;53236;43.666;18.444;2024-02-14T12:45:33;9.20;63.30
65462;DHT22;53236;43.666;18.444;2024-02-14T12:47:59;8.90;63.50
65462;DHT22;53236;43.666;18.444;2024-02-14T12:50:25;9.00;68.30
65462;DHT22;53236;43.666;18.444;2024-02-14T12:52:51;9.00;65.60
65462;DHT22;53236;43.666;18.444;2024-02-14T12:55:17;9.10;65.90
65462;DHT22;53236;43.666;18.444;2024-02-14T12:57:45;9.00;63.90
65462;DHT22;53236;43.666;18.444;2024-02-14T13:00:11;8.90;63.90
65462;DHT22;53236;43.666;18.444;2024-02-14T13:02:37;9.00;65.70
65462;DHT22;53236;43.666;18.444;2024-02-14T13:05:04;9.00;67.00
65462;DHT22;53236;43.666;18.444;2024-02-14T13:07:31;8.60;64.80
65462;DHT22;53236;43.666;18.444;2024-02-14T13:09:57;8.60;66.80
65462;DHT22;53236;43.666;18.444;2024-02-14T13:12:22;8.80;66.20
65462;DHT22;53236;43.666;18.444;2024-02-14T13:14:48;8.80;64.30
65462;DHT22;53236;43.666;18.444;2024-02-14T13:17:14;8.70;66.90
65462;DHT22;53236;43.666;18.444;2024-02-14T13:19:40;8.60;64.40
65462;DHT22;53236;43.666;18.444;2024-02-14T13:22:08;8.60;64.90
65462;DHT22;53236;43.666;18.444;2024-02-14T13:24:34;8.40;66.30
65462;DHT22;53236;43.666;18.444;2024-02-14T13:27:00;8.40;68.00
65462;DHT22;53236;43.666;18.444;2024-02-14T13:29:26;8.30;66.10
65462;DHT22;53236;43.666;18.444;2024-02-14T13:31:51;8.30;66.60
65462;DHT22;53236;43.666;18.444;2024-02-14T13:34:17;8.40;65.80
65462;DHT22;53236;43.666;18.444;2024-02-14T13:36:46;8.30;64.80
65462;DHT22;53236;43.666;18.444;2024-02-14T13:39:13;8.10;66.10
65462;DHT22;53236;43.666;18.444;2024-02-14T13:41:39;8.20;65.60
65462;DHT22;53236;43.666;18.444;2024-02-14T13:44:08;8.10;68.20
65462;DHT22;53236;43.666;18.444;2024-02-14T13:46:35;8.10;67.70
65462;DHT22;53236;43.666;18.444;2024-02-14T13:49:01;8.10;66.60
65462;DHT22;53236;43.666;18.444;2024-02-14T13:51:27;8.20;66.00
65462;DHT22;53236;43.666;18.444;2024-02-14T13:53:53;8.10;66.30
65462;DHT22;53236;43.666;18.444;2024-02-14T13:56:19;7.90;66.50
65462;DHT22;53236;43.666;18.444;2024-02-14T13:58:48;7.90;67.70
65462;DHT22;53236;43.666;18.444;2024-02-14T14:01:15;7.80;67.30
65462;DHT22;53236;43.666;18.444;2024-02-14T14:03:41;7.70;67.40
65462;DHT22;53236;43.666;18.444;2024-02-14T14:06:07;7.70;68.30
65462;DHT22;53236;43.666;18.444;2024-02-14T14:08:36;7.60;68.40
65462;DHT22;53236;43.666;18.444;2024-02-14T14:11:05;7.60;66.30
65462;DHT22;53236;43.666;18.444;2024-02-14T14:13:31;7.60;65.90
65462;DHT22;53236;43.666;18.444;2024-02-14T14:15:59;7.50;66.60
65462;DHT22;53236;43.666;18.444;2024-02-14T14:18:25;7.50;67.00
65462;DHT22;53236;43.666;18.444;2024-02-14T14:20:51;7.50;66.90
65462;DHT22;53236;43.666;18.444;2024-02-14T14:23:18;7.40;67.10
65462;DHT22;53236;43.666;18.444;2024-02-14T14:25:44;7.40;66.70
65462;DHT22;53236;43.666;18.444;2024-02-14T14:28:10;7.40;66.80
65462;DHT22;53236;43.666;18.444;2024-02-14T14:30:36;7.30;67.30
65462;DHT22;53236;43.666;18.444;2024-02-14T14:33:02;7.20;66.80
65462;DHT22;53236;43.666;18.444;2024-02-14T14:35:29;7.20;69.20
65462;DHT22;53236;43.666;18.444;2024-02-14T14:37:59;7.20;66.50
65462;DHT22;53236;43.666;18.444;2024-02-14T14:40:25;7.10;65.90
65462;DHT22;53236;43.666;18.444;2024-02-14T14:42:51;7.10;65.80
65462;DHT22;53236;43.666;18.444;2024-02-14T14:45:18;7.10;65.60
65462;DHT22;53236;43.666;18.444;2024-02-14T14:47:44;7.10;66.40
65462;DHT22;53236;43.666;18.444;2024-02-14T14:50:11;7.00;66.50
65462;DHT22;53236;43.666;18.444;2024-02-14T14:52:38;7.00;66.90
65462;DHT22;53236;43.666;18.444;2024-02-14T14:55:05;6.90;64.70
65462;DHT22;53236;43.666;18.444;2024-02-14T14:57:30;6.90;64.70
65462;DHT22;53236;43.666;18.444;2024-02-14T14:59:56;6.70;63.00
65462;DHT22;53236;43.666;18.444;2024-02-14T15:02:22;6.70;61.90
65462;DHT22;53236;43.666;18.444;2024-02-14T15:04:48;6.60;63.80
65462;DHT22;53236;43.666;18.444;2024-02-14T15:07:14;6.50;62.20
65462;DHT22;53236;43.666;18.444;2024-02-14T15:09:42;6.30;63.40
65462;DHT22;53236;43.666;18.444;2024-02-14T15:12:07;6.40;65.70
65462;DHT22;53236;43.666;18.444;2024-02-14T15:14:33;6.20;65.50
65462;DHT22;53236;43.666;18.444;2024-02-14T15:16:59;6.10;65.40
65462;DHT22;53236;43.666;18.444;2024-02-14T15:19:25;6.00;62.90
65462;DHT22;53236;43.666;18.444;2024-02-14T15:21:51;5.90;67.60
65462;DHT22;53236;43.666;18.444;2024-02-14T15:24:17;5.70;67.40
65462;DHT22;53236;43.666;18.444;2024-02-14T15:26:43;5.60;66.90